Time;durP1;ratioP1;P1;durP2;ratioP2;P2;SDS_P1;SDS_P2;PMS_P1;PMS_P2;Temp;Humidity;BMP_temperature;BMP_pressure;BME280_temperature;BME280_humidity;BME280_pressure;Samples;Min_cycle;Max_cycle;Signal;HPM_P1;HPM_P2
2022/11/04 00:01:38;;;;;;;26.70;17.98;;;11.50;99.90;;;;;;5094099;28;20457;-75
2022/11/04 00:04:04;;;;;;;25.50;17.85;;;11.50;99.90;;;;;;5119835;27;20494;-75
2022/11/04 00:06:29;;;;;;;21.70;17.33;;;11.50;99.90;;;;;;5111541;27;20396;-75
2022/11/04 00:08:56;;;;;;;22.65;17.58;;;11.50;99.90;;;;;;5101959;28;20901;-75
2022/11/04 00:14:08;;;;;;;21.52;17.67;;;11.50;99.90;;;;;;5096951;27;20412;-75
2022/11/04 00:19:18;;;;;;;22.20;17.67;;;11.60;99.90;;;;;;5106506;27;20413;-75
2022/11/04 00:30:06;;;;;;;23.60;17.88;;;11.60;99.90;;;;;;5099117;28;20974;-75
2022/11/04 00:35:18;;;;;;;24.02;17.95;;;11.60;99.90;;;;;;5127691;28;20394;-75
2022/11/04 00:37:44;;;;;;;24.57;18.30;;;11.50;99.90;;;;;;5101713;28;20401;-75
2022/11/04 00:40:12;;;;;;;24.00;18.07;;;11.60;99.90;;;;;;5124995;27;20415;-75
2022/11/04 00:42:37;;;;;;;24.65;18.08;;;11.60;99.90;;;;;;5132962;27;20485;-75
2022/11/04 00:45:04;;;;;;;25.30;17.55;;;11.60;99.90;;;;;;5113138;27;20781;-75
2022/11/04 00:47:29;;;;;;;24.10;17.85;;;11.60;99.90;;;;;;5124790;27;20400;-75
2022/11/04 00:49:55;;;;;;;24.60;17.87;;;11.60;99.90;;;;;;5113776;27;20959;-75
2022/11/04 00:52:21;;;;;;;24.58;17.60;;;11.50;99.90;;;;;;5132317;27;20485;-75
2022/11/04 00:54:47;;;;;;;26.23;17.27;;;11.60;99.90;;;;;;5118093;27;20399;-75
2022/11/04 00:57:13;;;;;;;23.30;16.53;;;11.50;99.90;;;;;;5132703;27;20443;-75
2022/11/04 00:59:39;;;;;;;24.85;16.27;;;11.50;99.90;;;;;;5132701;27;20400;-75
2022/11/04 01:02:06;;;;;;;23.75;16.27;;;11.50;99.90;;;;;;5097214;27;20394;-75
2022/11/04 01:04:32;;;;;;;25.37;16.30;;;11.50;99.90;;;;;;5131911;27;20421;-75
2022/11/04 01:06:57;;;;;;;24.60;16.35;;;11.50;99.90;;;;;;5110567;28;20400;-75
2022/11/04 01:09:23;;;;;;;20.87;15.57;;;11.50;99.90;;;;;;5130277;27;20828;-75
2022/11/04 01:11:49;;;;;;;18.20;12.50;;;11.50;99.90;;;;;;5102563;27;20406;-75
2022/11/04 01:14:15;;;;;;;19.08;14.20;;;11.40;99.90;;;;;;5132263;27;20418;-75
2022/11/04 01:16:41;;;;;;;18.33;13.48;;;11.40;99.90;;;;;;5093533;28;20408;-75
2022/11/04 01:19:07;;;;;;;17.70;12.93;;;11.40;99.90;;;;;;5126592;27;20486;-75
2022/11/04 01:21:32;;;;;;;14.98;11.70;;;11.40;99.90;;;;;;5106173;28;20400;-75
2022/11/04 01:23:59;;;;;;;14.13;9.98;;;11.40;99.90;;;;;;5117770;27;20448;-75
2022/11/04 01:26:26;;;;;;;13.13;9.25;;;11.40;99.90;;;;;;5119129;27;20776;-75
2022/11/04 01:28:56;;;;;;;10.80;7.90;;;11.30;99.90;;;;;;5130789;27;20414;-75
2022/11/04 01:31:24;;;;;;;10.07;6.75;;;11.30;99.90;;;;;;5114234;27;20411;-75
2022/11/04 01:33:51;;;;;;;4.50;2.92;;;11.20;99.90;;;;;;5129473;27;20813;-75
2022/11/04 01:36:18;;;;;;;3.70;1.98;;;11.20;99.90;;;;;;5121543;27;20395;-75
2022/11/04 01:38:44;;;;;;;3.67;1.80;;;11.10;99.90;;;;;;5131829;27;21080;-74
2022/11/04 01:41:24;;;;;;;2.40;1.20;;;11.10;99.90;;;;;;5109442;28;20781;-75
2022/11/04 01:43:53;;;;;;;2.17;1.13;;;11.00;99.90;;;;;;5130330;27;20544;-75
2022/11/04 01:46:37;;;;;;;2.55;1.50;;;11.00;99.90;;;;;;5120111;27;20488;-74
2022/11/04 01:49:15;;;;;;;3.50;1.30;;;10.90;99.90;;;;;;5107138;27;20406;-75
2022/11/04 01:51:42;;;;;;;4.35;1.40;;;10.90;99.90;;;;;;5083094;27;20407;-75
2022/11/04 01:54:10;;;;;;;4.45;1.15;;;10.90;99.90;;;;;;5103780;28;20446;-75
2022/11/04 01:56:37;;;;;;;2.42;0.80;;;10.90;99.90;;;;;;5126458;27;20793;-75
2022/11/04 01:59:07;;;;;;;2.63;0.70;;;10.80;99.90;;;;;;5122631;27;20411;-75
2022/11/04 02:01:33;;;;;;;1.60;0.43;;;10.80;99.90;;;;;;5109468;28;20414;-75
2022/11/04 02:06:47;;;;;;;1.40;0.20;;;10.80;99.90;;;;;;5109413;28;20404;-75
2022/11/04 02:09:13;;;;;;;1.17;0.20;;;10.70;99.90;;;;;;5109333;28;20740;-75
2022/11/04 02:14:23;;;;;;;2.00;0.20;;;10.70;99.90;;;;;;5109573;28;20770;-75
2022/11/04 02:16:49;;;;;;;2.03;0.30;;;10.70;99.90;;;;;;5124461;27;20390;-75
2022/11/04 02:19:43;;;;;;;2.33;0.30;;;10.70;99.90;;;;;;5110456;27;20921;-75
2022/11/04 02:22:39;;;;;;;2.17;0.45;;;10.70;99.90;;;;;;5100325;28;20918;-75
2022/11/04 02:25:32;;;;;;;3.20;0.82;;;10.70;99.90;;;;;;5124178;27;20549;-75
2022/11/04 02:28:20;;;;;;;2.27;0.80;;;10.70;99.90;;;;;;5102003;27;20411;-75
2022/11/04 02:30:52;;;;;;;4.53;0.50;;;10.70;99.90;;;;;;5108758;28;20409;-75
2022/11/04 02:33:25;;;;;;;2.50;0.40;;;10.70;99.90;;;;;;5122311;27;20411;-75
2022/11/04 02:36:00;;;;;;;2.08;0.43;;;10.70;99.90;;;;;;5124101;27;20403;-75
2022/11/04 02:38:45;;;;;;;2.67;0.47;;;10.70;99.90;;;;;;5098238;27;20420;-75
2022/11/04 02:41:37;;;;;;;3.00;0.50;;;10.70;99.90;;;;;;5128613;27;20419;-75
2022/11/04 02:44:17;;;;;;;5.13;0.65;;;10.70;99.90;;;;;;5102846;27;20414;-75
2022/11/04 02:47:09;;;;;;;3.95;0.40;;;10.70;99.90;;;;;;5111195;27;20408;-75
2022/11/04 02:49:42;;;;;;;4.25;0.50;;;10.70;99.90;;;;;;5125379;27;20410;-75
2022/11/04 02:52:24;;;;;;;3.85;0.45;;;10.70;99.90;;;;;;5097692;27;20477;-75
2022/11/04 02:55:18;;;;;;;5.45;0.47;;;10.70;99.90;;;;;;5105922;28;20412;-75
2022/11/04 02:57:47;;;;;;;5.00;0.33;;;10.70;99.90;;;;;;5110267;27;20409;-75
2022/11/04 03:00:13;;;;;;;4.55;0.30;;;10.70;99.90;;;;;;5130173;27;21796;-75
2022/11/04 03:02:44;;;;;;;3.97;0.50;;;10.70;99.90;;;;;;5108145;28;20412;-75
2022/11/04 03:05:14;;;;;;;7.07;0.63;;;10.70;99.90;;;;;;5125309;27;20792;-75
2022/11/04 03:07:42;;;;;;;5.15;0.30;;;10.70;99.90;;;;;;5129883;27;20402;-75
2022/11/04 03:10:24;;;;;;;4.80;0.38;;;10.70;99.90;;;;;;5129494;27;20490;-75
2022/11/04 03:13:12;;;;;;;8.77;0.73;;;10.70;99.90;;;;;;5111102;27;21012;-75
2022/11/04 03:15:43;;;;;;;6.78;0.90;;;10.70;99.90;;;;;;5101583;28;20507;-75
2022/11/04 03:18:30;;;;;;;5.68;0.47;;;10.70;99.90;;;;;;5128496;27;20395;-75
2022/11/04 03:21:01;;;;;;;6.87;0.57;;;10.60;99.90;;;;;;5110963;27;20425;-75
2022/11/04 03:23:26;;;;;;;5.00;0.50;;;10.60;99.90;;;;;;5123060;27;20770;-75
2022/11/04 03:26:01;;;;;;;5.10;0.30;;;10.60;99.90;;;;;;5106616;27;20436;-75
2022/11/04 03:28:40;;;;;;;4.43;0.40;;;10.60;99.90;;;;;;5093207;28;20446;-75
2022/11/04 03:31:11;;;;;;;4.55;0.40;;;10.50;99.90;;;;;;5123435;27;20478;-75
2022/11/04 03:33:47;;;;;;;3.70;0.47;;;10.50;99.90;;;;;;5106561;27;20418;-75
2022/11/04 03:36:12;;;;;;;9.82;0.80;;;10.50;99.90;;;;;;5110669;27;20406;-75
2022/11/04 03:38:38;;;;;;;4.00;0.20;;;10.50;99.90;;;;;;5129897;27;20872;-75
2022/11/04 03:41:22;;;;;;;6.00;0.70;;;10.50;99.90;;;;;;5123986;27;20400;-75
2022/11/04 03:43:48;;;;;;;5.38;0.60;;;10.60;99.90;;;;;;5091755;27;20432;-75
2022/11/04 03:46:13;;;;;;;6.60;0.57;;;10.60;99.90;;;;;;5106476;28;20503;-75
2022/11/04 03:48:40;;;;;;;6.13;0.50;;;10.60;99.90;;;;;;5096948;27;20818;-75
2022/11/04 03:51:08;;;;;;;7.30;0.60;;;10.60;99.90;;;;;;5129530;27;20438;-75
2022/11/04 03:53:34;;;;;;;5.72;0.85;;;10.60;99.90;;;;;;5117484;27;20449;-75
2022/11/04 03:56:25;;;;;;;5.40;0.40;;;10.60;99.90;;;;;;5129157;27;20887;-75
2022/11/04 03:58:57;;;;;;;7.88;0.43;;;10.60;99.90;;;;;;5108304;27;20410;-75
2022/11/04 04:01:31;;;;;;;4.78;0.40;;;10.60;99.90;;;;;;5128468;27;20481;-75
2022/11/04 04:04:18;;;;;;;9.85;0.70;;;10.60;99.90;;;;;;5104640;28;20416;-75
2022/11/04 04:06:45;;;;;;;5.73;0.30;;;10.60;99.90;;;;;;5125245;27;20402;-75
2022/11/04 04:09:10;;;;;;;7.55;0.52;;;10.60;99.90;;;;;;5120488;27;20393;-75
2022/11/04 04:12:02;;;;;;;5.50;0.43;;;10.60;99.90;;;;;;5092976;28;21126;-75
2022/11/04 04:14:41;;;;;;;4.50;0.40;;;10.60;99.90;;;;;;5106574;28;20416;-75
2022/11/04 04:17:31;;;;;;;3.90;0.40;;;10.60;99.90;;;;;;5116736;27;20537;-75
2022/11/04 04:20:08;;;;;;;5.30;0.50;;;10.60;99.90;;;;;;5129146;27;20446;-75
2022/11/04 04:22:42;;;;;;;5.37;0.30;;;10.60;99.90;;;;;;5106864;28;20413;-75
2022/11/04 04:27:57;;;;;;;5.22;0.50;;;10.60;99.90;;;;;;5107427;28;20452;-75
2022/11/04 04:30:23;;;;;;;5.72;0.70;;;10.60;99.90;;;;;;5114249;28;20920;-75
2022/11/04 04:32:57;;;;;;;3.97;0.40;;;10.60;99.90;;;;;;5122147;28;20483;-75
2022/11/04 04:35:42;;;;;;;3.43;0.57;;;10.60;99.90;;;;;;5125050;28;20411;-75
2022/11/04 04:46:48;;;;;;;5.45;0.50;;;10.70;99.90;;;;;;5099291;28;20445;-75
2022/11/04 04:49:14;;;;;;;5.82;0.52;;;10.70;99.90;;;;;;5113420;28;20417;-75
2022/11/04 04:51:43;;;;;;;3.53;0.57;;;10.70;99.90;;;;;;5109799;28;20799;-75
2022/11/04 04:54:09;;;;;;;4.83;0.40;;;10.70;99.90;;;;;;5127114;28;20495;-75
2022/11/04 04:56:35;;;;;;;3.85;0.40;;;10.60;99.90;;;;;;5106863;28;20523;-75
2022/11/04 04:59:01;;;;;;;3.42;0.50;;;10.60;99.90;;;;;;5123606;28;20456;-75
2022/11/04 05:01:27;;;;;;;4.73;0.50;;;10.50;99.90;;;;;;5116146;28;20811;-75
2022/11/04 05:03:52;;;;;;;3.08;0.30;;;10.40;99.90;;;;;;5109435;28;20448;-75
2022/11/04 05:06:18;;;;;;;5.47;0.60;;;10.40;99.90;;;;;;5116148;28;20420;-75
2022/11/04 05:08:43;;;;;;;2.80;0.30;;;10.30;99.90;;;;;;5127575;28;21042;-75
2022/11/04 05:11:09;;;;;;;6.03;0.60;;;10.30;99.90;;;;;;5128625;28;20399;-75
2022/11/04 05:13:35;;;;;;;2.45;0.22;;;10.20;99.90;;;;;;5106310;28;20466;-75
2022/11/04 05:16:09;;;;;;;5.00;0.50;;;10.10;99.90;;;;;;5123391;28;20432;-75
2022/11/04 05:18:35;;;;;;;3.93;0.60;;;10.10;99.90;;;;;;5114708;28;20410;-75
2022/11/04 05:21:10;;;;;;;3.78;0.40;;;10.00;99.90;;;;;;5106876;28;20396;-75
2022/11/04 05:23:36;;;;;;;4.25;0.45;;;10.00;99.90;;;;;;5091710;28;20405;-74
2022/11/04 05:26:02;;;;;;;2.38;0.35;;;10.00;99.90;;;;;;5123090;27;20923;-74
2022/11/04 05:28:28;;;;;;;4.05;0.40;;;10.00;99.90;;;;;;5106569;28;20982;-74
2022/11/04 05:30:54;;;;;;;2.50;0.30;;;10.00;99.90;;;;;;5123109;27;20398;-75
2022/11/04 05:33:20;;;;;;;2.22;0.40;;;10.00;99.90;;;;;;5110367;28;20491;-75
2022/11/04 05:35:45;;;;;;;4.82;0.30;;;10.00;99.90;;;;;;5105643;27;20503;-75
2022/11/04 05:38:11;;;;;;;3.50;0.50;;;10.00;99.90;;;;;;5132137;27;20794;-75
2022/11/04 05:40:37;;;;;;;4.30;0.50;;;9.90;99.90;;;;;;5112607;27;20417;-75
2022/11/04 05:43:02;;;;;;;4.47;0.53;;;10.00;99.90;;;;;;5131488;27;20492;-75
2022/11/04 05:45:28;;;;;;;3.53;0.80;;;10.00;99.90;;;;;;5131638;27;20422;-75
2022/11/04 05:47:59;;;;;;;6.13;1.20;;;10.00;99.90;;;;;;5109118;28;20435;-75
2022/11/04 05:50:25;;;;;;;5.00;0.98;;;10.00;99.90;;;;;;5110619;27;20412;-75
2022/11/04 05:52:50;;;;;;;5.25;0.80;;;10.00;99.90;;;;;;5132284;27;20401;-75
2022/11/04 05:55:16;;;;;;;6.30;1.50;;;10.00;99.90;;;;;;5131311;27;20744;-75
2022/11/04 05:57:41;;;;;;;8.25;1.10;;;10.10;99.90;;;;;;5131077;27;20470;-75
2022/11/04 06:00:08;;;;;;;4.73;0.80;;;10.10;99.90;;;;;;5131131;27;20509;-74
2022/11/04 06:02:34;;;;;;;6.10;0.95;;;10.10;99.90;;;;;;5113494;27;20442;-75
2022/11/04 06:05:00;;;;;;;3.75;0.90;;;10.10;99.90;;;;;;5094134;27;20463;-75
2022/11/04 06:07:25;;;;;;;3.80;0.80;;;10.00;99.90;;;;;;5111846;27;20411;-75
2022/11/04 06:09:51;;;;;;;4.60;0.75;;;10.00;99.90;;;;;;5112586;27;20403;-75
2022/11/04 06:12:16;;;;;;;3.53;0.70;;;10.00;99.90;;;;;;5130761;27;20391;-75
2022/11/04 06:14:43;;;;;;;7.47;1.20;;;10.00;99.90;;;;;;5099303;27;20810;-74
2022/11/04 06:17:15;;;;;;;5.47;0.60;;;10.10;99.90;;;;;;5131102;27;20401;-74
2022/11/04 06:19:41;;;;;;;5.38;0.70;;;10.00;99.90;;;;;;5128097;27;20402;-75
2022/11/04 06:22:08;;;;;;;4.17;0.80;;;10.00;99.90;;;;;;5111167;28;20404;-75
2022/11/04 06:24:33;;;;;;;6.05;0.65;;;10.00;99.90;;;;;;5120168;27;21727;-74
2022/11/04 06:26:59;;;;;;;4.75;0.60;;;10.10;99.90;;;;;;5109347;28;20440;-74
2022/11/04 06:29:24;;;;;;;4.60;0.87;;;10.00;99.90;;;;;;5126818;27;20951;-74
2022/11/04 06:31:50;;;;;;;5.07;0.50;;;10.00;99.90;;;;;;5127702;27;20399;-74
2022/11/04 06:34:15;;;;;;;5.03;0.43;;;10.00;99.90;;;;;;5126707;27;20418;-74
2022/11/04 06:36:41;;;;;;;4.88;0.60;;;9.90;99.90;;;;;;5121518;27;20476;-75
2022/11/04 06:39:07;;;;;;;6.40;0.73;;;9.90;99.90;;;;;;5106363;27;20400;-75
2022/11/04 06:41:32;;;;;;;3.55;0.90;;;9.90;99.90;;;;;;5091587;28;20902;-75
2022/11/04 06:43:58;;;;;;;6.27;0.87;;;9.90;99.90;;;;;;5110019;27;20403;-75
2022/11/04 06:46:25;;;;;;;3.90;1.00;;;9.90;99.90;;;;;;5096541;27;20421;-76
2022/11/04 06:48:51;;;;;;;5.18;1.10;;;9.90;99.90;;;;;;5098629;27;20435;-76
2022/11/04 06:51:17;;;;;;;6.57;0.90;;;9.90;99.90;;;;;;5092003;28;20424;-75
2022/11/04 06:53:43;;;;;;;5.37;0.83;;;9.90;99.90;;;;;;5125391;27;20470;-75
2022/11/04 06:56:08;;;;;;;6.35;0.90;;;9.90;99.90;;;;;;5130009;27;20434;-75
2022/11/04 06:58:34;;;;;;;5.10;0.88;;;9.90;99.90;;;;;;5109952;27;20432;-75
2022/11/04 07:01:00;;;;;;;5.37;0.80;;;10.00;99.90;;;;;;5091585;28;20401;-75
2022/11/04 07:03:26;;;;;;;7.25;1.00;;;10.00;99.90;;;;;;5123594;27;20398;-75
2022/11/04 07:05:52;;;;;;;4.53;0.70;;;9.90;99.90;;;;;;5105327;28;20485;-75
2022/11/04 07:08:18;;;;;;;5.13;0.57;;;9.90;99.90;;;;;;5107060;27;20424;-75
2022/11/04 07:10:43;;;;;;;5.53;0.63;;;9.90;99.90;;;;;;5107998;28;20401;-75
2022/11/04 07:13:09;;;;;;;4.43;0.70;;;9.90;99.90;;;;;;5125413;27;20395;-75
2022/11/04 07:15:37;;;;;;;4.93;0.60;;;9.90;99.90;;;;;;5108197;28;20481;-75
2022/11/04 07:18:03;;;;;;;4.63;0.70;;;9.80;99.90;;;;;;5110233;27;20400;-75
2022/11/04 07:20:28;;;;;;;4.13;0.60;;;9.80;99.90;;;;;;5108143;28;20453;-75
2022/11/04 07:22:54;;;;;;;4.87;0.43;;;9.80;99.90;;;;;;5110249;27;20946;-75
2022/11/04 07:25:20;;;;;;;4.23;0.50;;;9.70;99.90;;;;;;5127166;27;20414;-75
2022/11/04 07:27:45;;;;;;;3.63;0.50;;;9.70;99.90;;;;;;5095639;27;20966;-75
2022/11/04 07:30:11;;;;;;;5.67;0.67;;;9.80;99.90;;;;;;5109069;27;20407;-75
2022/11/04 07:32:37;;;;;;;2.75;0.40;;;9.80;99.90;;;;;;5107883;28;20435;-75
2022/11/04 07:35:03;;;;;;;4.93;0.70;;;9.80;99.90;;;;;;5123361;27;20407;-75
2022/11/04 07:37:29;;;;;;;8.10;0.90;;;9.90;99.90;;;;;;5079394;27;20489;-75
2022/11/04 07:39:54;;;;;;;4.70;0.60;;;9.90;99.90;;;;;;5128915;27;20514;-75
2022/11/04 07:42:20;;;;;;;2.60;0.50;;;9.90;99.90;;;;;;5105306;27;20436;-75
2022/11/04 07:44:46;;;;;;;4.00;0.50;;;9.90;99.90;;;;;;5129518;27;20787;-75
2022/11/04 07:47:11;;;;;;;6.90;0.55;;;9.90;99.90;;;;;;5117180;27;20395;-75
2022/11/04 07:49:37;;;;;;;6.03;1.10;;;9.90;99.90;;;;;;5128478;27;20402;-75
2022/11/04 07:52:03;;;;;;;4.68;0.60;;;9.80;99.90;;;;;;5129084;27;20803;-75
2022/11/04 07:54:28;;;;;;;4.78;0.68;;;9.90;99.90;;;;;;5110842;27;20795;-75
2022/11/04 07:56:54;;;;;;;4.97;0.70;;;9.90;99.90;;;;;;5128324;27;20403;-75
2022/11/04 07:59:20;;;;;;;2.55;0.52;;;10.00;99.90;;;;;;5107527;28;20415;-75
2022/11/04 08:01:45;;;;;;;3.80;0.73;;;10.10;99.90;;;;;;5123951;27;20493;-75
2022/11/04 08:04:11;;;;;;;4.18;0.80;;;10.20;99.90;;;;;;5129525;27;21128;-75
2022/11/04 08:06:36;;;;;;;6.93;1.00;;;10.20;99.90;;;;;;5121140;27;20924;-75
2022/11/04 08:09:03;;;;;;;5.13;0.80;;;10.20;99.90;;;;;;5117108;27;20391;-75
2022/11/04 08:11:29;;;;;;;5.20;0.77;;;10.30;99.90;;;;;;5108740;28;20403;-75
2022/11/04 08:13:55;;;;;;;4.30;0.85;;;10.20;99.90;;;;;;5115293;27;20836;-75
2022/11/04 08:16:23;;;;;;;6.88;1.05;;;10.20;99.90;;;;;;5122928;27;20399;-75
2022/11/04 08:18:51;;;;;;;6.75;0.82;;;10.20;99.90;;;;;;5099204;27;20383;-75
2022/11/04 08:21:17;;;;;;;8.57;0.97;;;10.20;99.90;;;;;;5107147;28;20408;-75
2022/11/04 08:23:44;;;;;;;4.88;0.82;;;10.20;99.90;;;;;;5117868;27;20446;-75
2022/11/04 08:26:14;;;;;;;4.30;0.80;;;10.20;99.90;;;;;;5093100;28;21114;-75
2022/11/04 08:28:39;;;;;;;5.18;1.00;;;10.20;99.90;;;;;;5106846;28;20408;-75
2022/11/04 08:31:07;;;;;;;6.77;0.93;;;10.20;99.90;;;;;;5108936;28;20404;-75
2022/11/04 08:33:35;;;;;;;4.57;0.82;;;10.10;99.90;;;;;;5091364;28;20412;-75
2022/11/04 08:36:06;;;;;;;4.90;0.90;;;10.20;99.90;;;;;;5128880;28;20398;-75
2022/11/04 08:38:33;;;;;;;3.57;0.77;;;10.20;99.90;;;;;;5110250;28;20406;-75
2022/11/04 08:41:01;;;;;;;4.30;0.75;;;10.20;99.90;;;;;;5093418;28;20405;-75
2022/11/04 08:43:27;;;;;;;7.63;1.00;;;10.20;99.90;;;;;;5125256;28;20402;-75
2022/11/04 08:45:53;;;;;;;5.22;1.15;;;10.40;99.90;;;;;;5127182;28;20419;-75
2022/11/04 08:48:19;;;;;;;4.50;0.82;;;10.50;99.90;;;;;;5098594;28;20404;-74
2022/11/04 08:50:52;;;;;;;7.25;1.15;;;10.60;99.90;;;;;;5125944;28;20401;-75
2022/11/04 08:53:18;;;;;;;4.32;0.73;;;10.80;99.90;;;;;;5106651;28;20400;-75
2022/11/04 08:55:44;;;;;;;4.70;0.65;;;10.90;99.90;;;;;;5106380;28;20458;-75
2022/11/04 08:58:09;;;;;;;5.73;0.70;;;10.90;99.90;;;;;;5120715;28;20422;-75
2022/11/04 09:00:35;;;;;;;5.15;0.93;;;10.90;99.90;;;;;;5105773;28;20461;-75
2022/11/04 09:03:01;;;;;;;2.60;0.60;;;10.80;99.90;;;;;;5125401;27;20767;-75
2022/11/04 09:05:27;;;;;;;4.60;0.63;;;10.80;99.90;;;;;;5110310;28;21013;-75
2022/11/04 09:07:54;;;;;;;5.27;0.90;;;10.70;99.90;;;;;;5130379;27;20413;-75
2022/11/04 09:10:19;;;;;;;3.83;0.55;;;10.70;99.90;;;;;;5080570;28;20924;-75
2022/11/04 09:12:45;;;;;;;3.78;0.60;;;10.70;99.90;;;;;;5124706;27;20409;-75
2022/11/04 09:15:12;;;;;;;4.30;0.60;;;10.70;99.90;;;;;;5092152;28;20483;-75
2022/11/04 09:17:37;;;;;;;4.97;0.80;;;10.80;99.90;;;;;;5123971;27;20422;-75
2022/11/04 09:20:04;;;;;;;2.78;0.60;;;10.80;99.90;;;;;;5112109;27;20423;-75
2022/11/04 09:22:30;;;;;;;3.92;0.57;;;10.90;99.90;;;;;;5132320;27;20472;-75
2022/11/04 09:24:56;;;;;;;5.30;0.55;;;10.90;99.90;;;;;;5108468;28;21013;-75
2022/11/04 09:27:22;;;;;;;3.45;0.52;;;10.90;99.90;;;;;;5103215;28;20404;-75
2022/11/04 09:29:48;;;;;;;2.90;0.53;;;11.00;99.90;;;;;;5131618;27;20477;-75
2022/11/04 09:32:13;;;;;;;4.93;0.50;;;11.00;99.90;;;;;;5096269;27;21395;-75
2022/11/04 09:34:39;;;;;;;4.53;0.73;;;11.00;99.90;;;;;;5096247;28;20392;-75
2022/11/04 09:37:04;;;;;;;6.22;0.60;;;11.10;99.90;;;;;;5123710;27;20391;-75
2022/11/04 09:39:30;;;;;;;6.37;0.97;;;11.10;99.90;;;;;;5125787;27;20403;-75
2022/11/04 09:42:14;;;;;;;5.40;0.73;;;11.20;99.90;;;;;;5113517;27;20482;-75
2022/11/04 09:44:50;;;;;;;3.67;0.40;;;11.30;99.90;;;;;;5111341;27;20432;-76
2022/11/04 09:47:17;;;;;;;6.63;0.80;;;11.60;99.90;;;;;;5108566;27;20470;-75
2022/11/04 09:49:47;;;;;;;3.40;0.50;;;12.30;99.90;;;;;;5131163;27;20403;-75
2022/11/04 09:52:19;;;;;;;2.50;0.30;;;13.40;99.90;;;;;;5131784;27;20482;-75
2022/11/04 09:55:05;;;;;;;3.78;0.30;;;14.50;99.90;;;;;;5113118;27;20787;-75
2022/11/04 09:57:31;;;;;;;4.03;0.30;;;15.60;99.90;;;;;;5109384;28;20508;-75
2022/11/04 09:59:58;;;;;;;5.53;0.35;;;16.40;99.90;;;;;;5083495;28;21084;-75
2022/11/04 10:02:49;;;;;;;5.72;0.70;;;17.10;99.90;;;;;;5125057;27;20465;-75
2022/11/04 10:05:26;;;;;;;3.97;0.70;;;17.30;99.90;;;;;;5124542;27;20432;-76
2022/11/04 10:08:21;;;;;;;3.00;0.35;;;16.80;99.90;;;;;;5123154;27;20760;-75
2022/11/04 10:10:57;;;;;;;5.50;0.40;;;17.00;99.90;;;;;;5112546;27;20404;-75
2022/11/04 10:13:26;;;;;;;3.30;0.45;;;17.60;99.90;;;;;;5095423;28;20407;-76
2022/11/04 10:16:10;;;;;;;4.03;0.73;;;18.10;99.90;;;;;;5112708;27;20412;-75
2022/11/04 10:19:05;;;;;;;5.20;0.57;;;17.90;99.90;;;;;;5109262;28;20420;-75
2022/11/04 10:21:43;;;;;;;9.90;1.70;;;17.00;99.90;;;;;;5115533;27;21129;-75
2022/11/04 10:24:17;;;;;;;4.82;0.60;;;16.00;99.90;;;;;;5118683;27;20935;-75
2022/11/04 10:26:56;;;;;;;19.33;4.32;;;15.20;99.90;;;;;;5130913;27;20459;-75
2022/11/04 10:29:51;;;;;;;2.65;0.40;;;14.50;99.90;;;;;;5088510;28;20483;-75
2022/11/04 10:32:21;;;;;;;6.28;0.65;;;14.00;99.90;;;;;;5120898;27;20815;-75
2022/11/04 10:34:55;;;;;;;4.28;0.30;;;13.60;99.90;;;;;;5100550;28;20405;-75
2022/11/04 10:37:23;;;;;;;4.25;0.30;;;13.30;99.90;;;;;;5109644;27;20451;-75
2022/11/04 10:39:52;;;;;;;5.60;0.50;;;13.10;99.90;;;;;;5120973;27;20403;-75
2022/11/04 10:42:21;;;;;;;6.13;0.40;;;13.00;99.90;;;;;;5111400;27;20473;-75
2022/11/04 10:44:49;;;;;;;8.10;0.50;;;13.00;99.90;;;;;;5111608;27;20475;-75
2022/11/04 10:47:25;;;;;;;5.53;0.50;;;13.40;99.90;;;;;;5129811;27;20907;-75
2022/11/04 10:50:02;;;;;;;3.38;0.50;;;14.40;99.90;;;;;;5130327;27;20443;-75
2022/11/04 10:52:27;;;;;;;3.20;0.40;;;14.60;99.90;;;;;;5110756;27;20944;-75
2022/11/04 10:54:53;;;;;;;2.83;0.30;;;14.20;99.90;;;;;;5096573;28;20432;-75
2022/11/04 10:57:23;;;;;;;4.60;0.60;;;13.80;99.90;;;;;;5129202;27;20490;-75
2022/11/04 11:00:02;;;;;;;6.23;1.00;;;13.40;99.90;;;;;;5130234;27;20445;-75
2022/11/04 11:02:36;;;;;;;5.32;0.50;;;13.20;99.90;;;;;;5117834;27;20482;-75
2022/11/04 11:05:17;;;;;;;5.65;0.80;;;13.00;99.90;;;;;;5116720;27;20431;-75
2022/11/04 11:07:44;;;;;;;4.13;0.73;;;13.00;99.90;;;;;;5116204;27;20396;-75
2022/11/04 11:10:29;;;;;;;3.47;0.47;;;12.90;99.90;;;;;;5127344;27;20409;-75
2022/11/04 11:13:05;;;;;;;3.67;0.40;;;12.80;99.90;;;;;;5129909;27;20445;-75
2022/11/04 11:15:36;;;;;;;2.80;0.40;;;12.70;99.90;;;;;;5102678;28;20431;-75
2022/11/04 11:18:05;;;;;;;5.05;0.55;;;12.60;99.90;;;;;;5107068;27;20939;-74
2022/11/04 11:20:32;;;;;;;3.47;0.70;;;12.50;99.90;;;;;;5109618;27;20469;-74
2022/11/04 11:23:00;;;;;;;3.10;0.50;;;12.50;99.90;;;;;;5126118;27;20399;-74
2022/11/04 11:25:30;;;;;;;4.93;0.65;;;12.50;99.90;;;;;;5106680;28;20428;-75
2022/11/04 11:28:11;;;;;;;6.15;0.65;;;12.60;99.90;;;;;;5126790;27;20909;-75
2022/11/04 11:30:40;;;;;;;5.53;0.70;;;13.10;99.90;;;;;;5108649;27;20413;-75
2022/11/04 11:33:17;;;;;;;4.78;0.70;;;13.60;99.90;;;;;;5109182;27;20479;-75
2022/11/04 11:35:51;;;;;;;6.50;0.70;;;13.90;99.90;;;;;;5107074;28;21024;-75
2022/11/04 11:38:24;;;;;;;6.78;0.57;;;14.00;99.90;;;;;;5127724;27;20473;-75
2022/11/04 11:40:53;;;;;;;3.67;0.60;;;14.20;99.90;;;;;;5097779;27;21054;-75
2022/11/04 11:43:25;;;;;;;4.07;0.57;;;14.40;99.90;;;;;;5124948;27;20455;-75
2022/11/04 11:45:53;;;;;;;3.88;0.68;;;14.40;99.90;;;;;;5114595;27;20426;-75
2022/11/04 11:48:31;;;;;;;6.30;0.80;;;14.40;99.90;;;;;;5129070;27;20398;-75
2022/11/04 11:50:58;;;;;;;6.80;0.80;;;14.40;99.90;;;;;;5090101;28;20415;-75
2022/11/04 11:53:28;;;;;;;7.55;1.10;;;14.30;99.90;;;;;;5089212;27;20929;-75
2022/11/04 11:56:25;;;;;;;7.97;0.82;;;14.30;99.90;;;;;;5106008;28;20401;-75
2022/11/04 11:59:06;;;;;;;5.73;0.73;;;14.20;99.90;;;;;;5109785;27;20915;-75
2022/11/04 12:02:13;;;;;;;9.32;0.95;;;14.30;99.90;;;;;;5116606;27;20405;-74
2022/11/04 12:04:40;;;;;;;6.88;0.80;;;14.30;99.90;;;;;;5099250;28;20420;-75
2022/11/04 12:07:11;;;;;;;4.75;0.52;;;14.10;99.90;;;;;;5123219;27;20415;-75
2022/11/04 12:09:48;;;;;;;5.80;0.60;;;13.90;99.90;;;;;;5100215;28;20408;-74
2022/11/04 12:12:24;;;;;;;3.53;0.85;;;13.50;99.90;;;;;;5128938;27;21436;-75
2022/11/04 12:15:17;;;;;;;7.35;0.75;;;13.10;99.90;;;;;;5127977;27;20413;-75
2022/11/04 12:18:04;;;;;;;9.52;1.30;;;12.70;99.90;;;;;;5129637;27;20459;-74
2022/11/04 12:20:52;;;;;;;11.55;3.90;;;12.40;99.90;;;;;;5109336;27;20515;-74
2022/11/04 12:23:35;;;;;;;10.45;2.40;;;12.20;99.90;;;;;;5116294;28;20855;-74
2022/11/04 12:26:16;;;;;;;8.35;1.08;;;12.10;99.90;;;;;;5128413;27;20418;-75
2022/11/04 12:28:55;;;;;;;6.45;0.95;;;11.90;99.90;;;;;;5128440;27;20918;-75
2022/11/04 12:31:35;;;;;;;9.07;1.45;;;11.80;99.90;;;;;;5128458;28;20402;-75
2022/11/04 12:34:25;;;;;;;7.53;1.13;;;11.60;99.90;;;;;;5085288;28;20920;-75
2022/11/04 12:37:11;;;;;;;6.70;1.08;;;11.70;99.90;;;;;;5109786;28;21293;-75
2022/11/04 12:40:01;;;;;;;9.65;0.88;;;11.70;99.90;;;;;;5107462;28;20419;-75
2022/11/04 12:42:39;;;;;;;8.77;1.00;;;11.70;99.90;;;;;;5118092;27;20419;-75
2022/11/04 12:45:35;;;;;;;7.22;0.90;;;11.80;99.90;;;;;;5124062;27;20424;-75
2022/11/04 12:48:10;;;;;;;5.10;0.85;;;11.80;99.90;;;;;;5121406;27;20403;-75
2022/11/04 12:50:43;;;;;;;6.15;0.90;;;11.90;99.90;;;;;;5097164;27;20776;-75
2022/11/04 12:53:17;;;;;;;7.07;0.90;;;11.90;99.90;;;;;;5087179;28;20431;-74
2022/11/04 12:55:46;;;;;;;4.20;0.80;;;12.10;99.90;;;;;;5108236;28;20454;-75
2022/11/04 12:58:37;;;;;;;6.88;0.60;;;12.10;99.90;;;;;;5114262;27;20466;-75
2022/11/04 13:01:14;;;;;;;3.63;0.75;;;12.10;99.90;;;;;;5103646;27;20489;-75
2022/11/04 13:03:56;;;;;;;6.13;0.90;;;12.10;99.90;;;;;;5110402;28;20411;-75
2022/11/04 13:06:51;;;;;;;6.07;0.70;;;12.10;99.90;;;;;;5113841;27;21560;-75
2022/11/04 13:09:26;;;;;;;3.95;0.50;;;12.10;99.90;;;;;;5112435;27;20768;-75
2022/11/04 13:12:00;;;;;;;4.78;1.25;;;12.20;99.90;;;;;;5129720;27;20402;-75
2022/11/04 13:14:34;;;;;;;6.38;1.45;;;12.20;99.90;;;;;;5113337;27;20410;-75
2022/11/04 13:17:05;;;;;;;5.55;2.80;;;12.10;99.90;;;;;;5117706;27;20402;-75
2022/11/04 13:19:41;;;;;;;7.13;1.93;;;12.10;99.90;;;;;;5093427;27;20439;-75
2022/11/04 13:22:10;;;;;;;5.03;0.60;;;12.00;99.90;;;;;;5105266;27;20406;-75
2022/11/04 13:24:47;;;;;;;3.45;0.50;;;12.10;99.90;;;;;;5099613;27;20462;-75
2022/11/04 13:27:20;;;;;;;4.93;0.82;;;12.00;99.90;;;;;;5129144;27;20420;-75
2022/11/04 13:29:47;;;;;;;9.35;3.45;;;12.10;99.90;;;;;;5116067;27;20466;-75
2022/11/04 13:32:25;;;;;;;5.65;0.90;;;12.00;99.90;;;;;;5131807;27;20406;-75
2022/11/04 13:35:07;;;;;;;6.25;0.82;;;12.00;99.90;;;;;;5131254;27;20965;-75
2022/11/04 13:37:38;;;;;;;5.22;0.65;;;11.90;99.90;;;;;;5111094;27;20412;-75
2022/11/04 13:40:24;;;;;;;3.40;0.70;;;11.90;99.90;;;;;;5120076;27;20752;-75